Crawford, Maine
Current Conditions -  °F | °C
As of 11:15 PM on Tuesday 27 Jan 2015 (Local Time) from KBHB Reporting Station
Overcast Overcast  
Wind Chill: -4°   Ceiling: 2100
Heat Index: 12°   Visibility: 4mi
Dew Point: 12°   Wind: 16mph
Humidity: 100%   Direction: 360°N
Pressure: 29.53"   Gusts: 24mph
Location:  45.0659°N, 67.4987°W
Report Text: KBHB 280415Z 36014G21KT 4SM BKN021 OVC030 M11/M11 A2953 RMK AO1
Loading
Personal Weather Stations






























Interactive Weather Map New forecast layout! Learn more

10-Day Weather Forecast

Advertisements
Track Severe Weather on mobile